createdAt,value
2022-11-20T00:01:21.599Z,45.03
2022-11-20T00:03:48.648Z,42.85
2022-11-20T00:06:17.777Z,42.10
2022-11-20T00:08:45.094Z,43.40
2022-11-20T00:11:16.919Z,39.25
2022-11-20T00:13:48.762Z,41.38
2022-11-20T00:16:18.378Z,44.22
2022-11-20T00:18:45.831Z,47.47
2022-11-20T00:21:14.962Z,48.65
2022-11-20T00:23:42.528Z,47.60
2022-11-20T00:26:11.627Z,52.15
2022-11-20T00:28:38.519Z,48.92
2022-11-20T00:31:11.300Z,48.00
2022-11-20T00:33:38.166Z,39.53
2022-11-20T00:36:07.834Z,46.53
2022-11-20T00:38:34.974Z,47.00
2022-11-20T00:41:05.710Z,44.63
2022-11-20T00:43:32.247Z,44.17
2022-11-20T00:46:00.147Z,46.88
2022-11-20T00:48:27.137Z,45.97
2022-11-20T00:50:54.548Z,47.50
2022-11-20T00:53:21.996Z,44.67
2022-11-20T00:55:58.496Z,46.78
2022-11-20T00:58:29.128Z,47.50
2022-11-20T01:01:02.114Z,49.00
2022-11-20T01:03:28.904Z,42.58
2022-11-20T01:05:55.355Z,46.70
2022-11-20T01:08:21.912Z,48.30
2022-11-20T01:10:48.396Z,50.38
2022-11-20T01:13:33.301Z,43.25
2022-11-20T01:16:13.781Z,47.08
2022-11-20T01:18:43.131Z,42.95
2022-11-20T01:21:14.044Z,42.70
2022-11-20T01:23:42.796Z,45.63
2022-11-20T01:26:16.754Z,42.78
2022-11-20T01:28:43.863Z,40.03
2022-11-20T01:31:23.669Z,40.72
2022-11-20T01:33:52.497Z,45.20
2022-11-20T01:36:20.861Z,41.40
2022-11-20T01:38:47.696Z,43.95
2022-11-20T01:41:36.098Z,41.13
2022-11-20T01:44:04.867Z,38.65
2022-11-20T01:46:37.734Z,40.40
2022-11-20T01:49:13.169Z,41.92
2022-11-20T01:52:04.031Z,41.53
2022-11-20T01:54:40.430Z,41.53
2022-11-20T01:57:09.946Z,42.90
2022-11-20T01:59:42.818Z,41.58
2022-11-20T02:02:09.383Z,39.92
2022-11-20T02:04:36.537Z,41.97
2022-11-20T02:07:06.151Z,49.40
2022-11-20T02:09:32.741Z,44.05
2022-11-20T02:11:59.889Z,46.00
2022-11-20T02:14:27.418Z,41.60
2022-11-20T02:16:55.995Z,38.05
2022-11-20T02:19:28.832Z,40.92
2022-11-20T02:22:19.464Z,51.45
2022-11-20T02:24:47.138Z,38.38
2022-11-20T02:27:15.042Z,42.38
2022-11-20T02:29:51.570Z,43.65
2022-11-20T02:32:22.166Z,47.50
2022-11-20T02:34:49.867Z,37.63
2022-11-20T02:37:16.877Z,41.97
2022-11-20T02:39:45.656Z,44.67
2022-11-20T02:42:12.170Z,46.95
2022-11-20T02:44:38.722Z,42.25
2022-11-20T02:47:05.428Z,40.42
2022-11-20T02:49:32.227Z,43.05
2022-11-20T02:51:58.726Z,46.10
2022-11-20T02:54:25.892Z,42.08
2022-11-20T02:56:53.262Z,42.78
2022-11-20T02:59:20.173Z,38.15
2022-11-20T03:04:12.258Z,45.13
2022-11-20T03:06:38.812Z,44.13
2022-11-20T03:09:05.262Z,40.42
2022-11-20T03:11:31.803Z,38.83
2022-11-20T03:13:58.277Z,39.60
2022-11-20T03:16:25.051Z,36.88
2022-11-20T03:18:53.388Z,42.15
2022-11-20T03:21:19.861Z,45.05
2022-11-20T03:23:46.349Z,37.55
2022-11-20T03:26:18.309Z,40.67
2022-11-20T03:28:50.615Z,43.85
2022-11-20T03:31:18.871Z,48.05
2022-11-20T03:33:45.687Z,45.20
2022-11-20T03:36:16.455Z,41.42
2022-11-20T03:38:43.377Z,46.90
2022-11-20T03:41:16.489Z,49.63
2022-11-20T03:43:43.019Z,41.17
2022-11-20T03:46:09.697Z,48.95
2022-11-20T03:48:36.241Z,46.17
2022-11-20T03:51:17.726Z,44.78
2022-11-20T03:53:46.246Z,48.95
2022-11-20T03:56:14.442Z,44.88
2022-11-20T03:58:41.968Z,47.40
2022-11-20T04:01:11.406Z,49.60
2022-11-20T04:03:39.693Z,44.95
2022-11-20T04:06:09.642Z,43.75
2022-11-20T04:08:36.173Z,44.58
2022-11-20T04:11:12.777Z,50.85
2022-11-20T04:13:39.933Z,54.65
2022-11-20T04:16:07.766Z,53.88
2022-11-20T04:18:35.016Z,47.50
2022-11-20T04:21:01.886Z,53.15
2022-11-20T04:23:29.105Z,57.05
2022-11-20T04:25:56.033Z,52.78
2022-11-20T04:28:22.546Z,48.15
2022-11-20T04:30:49.043Z,50.15
2022-11-20T04:33:15.659Z,52.17
2022-11-20T04:35:42.178Z,54.28
2022-11-20T04:38:08.689Z,56.08
2022-11-20T04:40:35.704Z,55.67
2022-11-20T04:43:02.202Z,51.20
2022-11-20T04:45:28.701Z,48.05
2022-11-20T04:47:55.279Z,55.30
2022-11-20T04:50:21.775Z,56.17
2022-11-20T04:52:48.244Z,54.58
2022-11-20T04:55:14.774Z,52.25
2022-11-20T04:57:41.306Z,49.72
2022-11-20T05:00:08.478Z,53.67
2022-11-20T05:02:35.094Z,54.38
2022-11-20T05:05:01.688Z,54.38
2022-11-20T05:07:28.221Z,56.95
2022-11-20T05:09:54.691Z,56.90
2022-11-20T05:12:21.212Z,55.35
2022-11-20T05:14:47.685Z,56.38
2022-11-20T05:17:14.395Z,54.38
2022-11-20T05:19:40.900Z,51.85
2022-11-20T05:22:07.403Z,49.47
2022-11-20T05:24:33.926Z,48.58
2022-11-20T05:27:00.414Z,49.70
2022-11-20T05:29:26.992Z,49.42
2022-11-20T05:31:53.506Z,49.63
2022-11-20T05:34:20.055Z,47.50
2022-11-20T05:36:46.564Z,42.50
2022-11-20T05:39:13.161Z,43.80
2022-11-20T05:41:39.703Z,36.15
2022-11-20T05:44:06.204Z,39.47
2022-11-20T05:46:32.771Z,38.50
2022-11-20T05:48:59.718Z,46.42
2022-11-20T05:51:26.852Z,51.33
2022-11-20T05:53:53.472Z,40.80
2022-11-20T05:56:22.260Z,41.22
2022-11-20T05:58:49.678Z,40.08
2022-11-20T06:01:19.462Z,41.35
2022-11-20T06:03:48.602Z,39.88
2022-11-20T06:06:16.373Z,40.63
2022-11-20T06:08:43.033Z,42.05
2022-11-20T06:11:12.023Z,47.80
2022-11-20T06:13:42.090Z,40.80
2022-11-20T06:16:09.781Z,47.38
2022-11-20T06:18:36.368Z,42.70
2022-11-20T06:21:06.817Z,46.22
2022-11-20T06:23:34.695Z,45.53
2022-11-20T06:26:06.188Z,45.63
2022-11-20T06:28:33.130Z,53.30
2022-11-20T06:31:00.132Z,40.65
2022-11-20T06:33:27.097Z,48.53
2022-11-20T06:35:59.560Z,43.90
2022-11-20T06:38:28.017Z,42.35
2022-11-20T06:40:55.353Z,39.03
2022-11-20T06:43:22.783Z,43.22
2022-11-20T06:45:54.726Z,43.80
2022-11-20T06:48:21.973Z,41.42
2022-11-20T06:50:48.783Z,51.90
2022-11-20T06:53:15.890Z,46.25
2022-11-20T06:55:47.254Z,43.60
2022-11-20T06:58:15.143Z,48.72
2022-11-20T07:00:41.981Z,54.38
2022-11-20T07:03:10.361Z,49.80
2022-11-20T07:05:37.430Z,44.22
2022-11-20T07:08:04.402Z,43.97
2022-11-20T07:10:30.922Z,48.90
2022-11-20T07:12:57.459Z,45.45
2022-11-20T07:15:26.049Z,48.65
2022-11-20T07:17:52.887Z,47.70
2022-11-20T07:20:19.352Z,48.95
2022-11-20T07:22:46.027Z,49.55
2022-11-20T07:25:12.690Z,43.97
2022-11-20T07:27:39.205Z,47.42
2022-11-20T07:30:06.326Z,54.83
2022-11-20T07:32:32.806Z,45.00
2022-11-20T07:34:59.915Z,42.33
2022-11-20T07:37:26.454Z,45.63
2022-11-20T07:39:52.931Z,42.95
2022-11-20T07:42:19.418Z,45.83
2022-11-20T07:44:45.983Z,44.55
2022-11-20T07:47:12.477Z,47.30
2022-11-20T07:49:38.969Z,46.95
2022-11-20T07:52:05.574Z,42.50
2022-11-20T07:54:32.087Z,46.45
2022-11-20T07:56:58.663Z,44.72
2022-11-20T07:59:25.692Z,45.03
2022-11-20T08:01:52.230Z,42.25
2022-11-20T08:04:18.718Z,43.88
2022-11-20T08:06:45.243Z,48.15
2022-11-20T08:09:11.790Z,45.67
2022-11-20T08:11:56.898Z,82.70
2022-11-20T08:14:23.510Z,46.78
2022-11-20T08:16:50.733Z,45.40
2022-11-20T08:19:19.153Z,40.55
2022-11-20T08:21:46.162Z,63.92
2022-11-20T08:24:13.223Z,47.55
2022-11-20T08:26:40.644Z,45.33
2022-11-20T08:29:07.424Z,44.67
2022-11-20T08:31:34.262Z,40.28
2022-11-20T08:34:00.760Z,44.97
2022-11-20T08:36:34.264Z,46.05
2022-11-20T08:39:00.903Z,43.38
2022-11-20T08:41:34.250Z,40.70
2022-11-20T08:44:03.795Z,39.90
2022-11-20T08:46:44.770Z,42.53
2022-11-20T08:49:13.542Z,41.50
2022-11-20T08:51:40.751Z,43.22
2022-11-20T08:54:07.641Z,37.92
2022-11-20T08:56:34.646Z,43.20
2022-11-20T08:59:31.312Z,47.00
2022-11-20T09:01:47.795Z,43.78
2022-11-20T09:04:15.424Z,46.53
2022-11-20T09:06:42.312Z,43.97
2022-11-20T09:09:08.956Z,45.63
2022-11-20T09:11:36.956Z,45.50
2022-11-20T09:14:03.856Z,45.47
2022-11-20T09:16:30.743Z,48.40
2022-11-20T09:19:20.623Z,44.97
2022-11-20T09:21:43.972Z,50.95
2022-11-20T09:24:10.613Z,46.45
2022-11-20T09:26:37.247Z,48.03
2022-11-20T09:29:04.006Z,45.78
2022-11-20T09:31:30.549Z,51.92
2022-11-20T09:33:57.045Z,46.58
2022-11-20T09:36:23.711Z,48.30
2022-11-20T09:38:50.225Z,47.95
2022-11-20T09:41:57.011Z,48.85
2022-11-20T09:44:45.194Z,48.35
2022-11-20T09:47:37.836Z,40.38
2022-11-20T09:50:32.111Z,49.40
2022-11-20T09:53:11.181Z,53.33
2022-11-20T09:55:38.639Z,50.30
2022-11-20T09:58:17.623Z,48.95
2022-11-20T10:00:45.442Z,48.05
2022-11-20T10:03:27.841Z,47.65
2022-11-20T10:05:55.977Z,53.65
2022-11-20T10:08:45.459Z,53.60
2022-11-20T10:11:24.714Z,45.75
2022-11-20T10:14:16.938Z,45.70
2022-11-20T10:17:04.975Z,49.72
2022-11-20T10:20:06.842Z,48.10
2022-11-20T10:23:04.100Z,50.30
2022-11-20T10:25:41.249Z,45.38
2022-11-20T10:28:16.775Z,48.08
2022-11-20T10:30:47.055Z,43.63
2022-11-20T10:33:29.055Z,43.88
2022-11-20T10:36:14.903Z,43.90
2022-11-20T10:38:45.909Z,46.35
2022-11-20T10:44:02.943Z,47.17
2022-11-20T10:46:38.787Z,41.45
2022-11-20T10:49:12.600Z,45.55
2022-11-20T10:51:45.301Z,45.33
2022-11-20T10:54:23.077Z,45.45
2022-11-20T10:57:00.638Z,47.40
2022-11-20T10:59:43.427Z,45.72
2022-11-20T11:02:22.898Z,46.67
2022-11-20T11:04:54.352Z,48.30
2022-11-20T11:07:24.165Z,51.47
2022-11-20T11:09:55.982Z,45.53
2022-11-20T11:12:27.414Z,43.53
2022-11-20T11:14:57.114Z,48.95
2022-11-20T11:17:31.368Z,44.05
2022-11-20T11:20:04.694Z,41.78
2022-11-20T11:22:33.545Z,50.15
2022-11-20T11:25:01.038Z,42.65
2022-11-20T11:27:27.914Z,39.28
2022-11-20T11:30:14.705Z,40.70
2022-11-20T11:32:41.388Z,39.40
2022-11-20T11:35:26.548Z,43.95
2022-11-20T11:38:13.610Z,40.22
2022-11-20T11:40:41.689Z,36.50
2022-11-20T11:43:38.466Z,41.25
2022-11-20T11:46:30.159Z,36.05
2022-11-20T11:49:05.768Z,42.85
2022-11-20T11:51:51.288Z,44.83
2022-11-20T11:54:26.503Z,38.03
2022-11-20T11:56:54.882Z,37.70
2022-11-20T11:59:55.762Z,35.70
2022-11-20T12:02:51.211Z,35.72
2022-11-20T12:05:59.805Z,36.10
2022-11-20T12:08:36.823Z,41.40
2022-11-20T12:11:32.110Z,39.00
2022-11-20T12:14:25.268Z,38.15
2022-11-20T12:16:53.837Z,33.13
2022-11-20T12:19:21.259Z,35.10
2022-11-20T12:22:25.715Z,32.17
2022-11-20T12:25:09.969Z,42.47
2022-11-20T12:27:48.587Z,38.50
2022-11-20T12:30:20.501Z,37.05
2022-11-20T12:32:56.425Z,38.72
2022-11-20T12:36:00.531Z,36.25
2022-11-20T12:38:59.479Z,41.95
2022-11-20T12:42:03.020Z,39.75
2022-11-20T12:45:12.179Z,43.00
2022-11-20T12:48:24.494Z,40.90
2022-11-20T12:51:28.622Z,39.40
2022-11-20T12:54:01.146Z,45.70
2022-11-20T12:56:46.622Z,43.55
2022-11-20T12:59:51.151Z,37.25
2022-11-20T13:02:42.499Z,43.53
2022-11-20T13:05:28.325Z,41.58
2022-11-20T13:07:56.083Z,36.28
2022-11-20T13:10:35.220Z,51.47
2022-11-20T13:13:13.321Z,34.58
2022-11-20T13:15:55.296Z,35.65
2022-11-20T13:18:22.293Z,34.25
2022-11-20T13:20:50.619Z,39.67
2022-11-20T13:23:28.700Z,43.70
2022-11-20T13:26:20.092Z,41.95
2022-11-20T13:28:48.502Z,40.25
2022-11-20T13:31:32.509Z,43.35
2022-11-20T13:34:01.005Z,42.85
2022-11-20T13:36:29.761Z,34.83
2022-11-20T13:38:57.378Z,51.80
2022-11-20T13:41:29.781Z,46.10
2022-11-20T13:44:08.865Z,45.22
2022-11-20T13:46:42.131Z,45.17
2022-11-20T13:49:19.483Z,41.40
2022-11-20T13:51:51.784Z,45.42
2022-11-20T13:54:52.970Z,45.25
2022-11-20T13:57:25.643Z,44.80
2022-11-20T14:00:13.203Z,44.83
2022-11-20T14:05:14.645Z,56.17
2022-11-20T14:07:43.600Z,45.17
2022-11-20T14:10:31.106Z,47.40
2022-11-20T14:12:58.853Z,45.97
2022-11-20T14:15:30.838Z,58.90
2022-11-20T14:17:58.733Z,44.80
2022-11-20T14:23:12.897Z,47.00
2022-11-20T14:25:44.342Z,46.75
2022-11-20T14:28:28.450Z,43.92
2022-11-20T14:30:56.666Z,50.40
2022-11-20T14:33:28.529Z,45.70
2022-11-20T14:35:57.488Z,45.72
2022-11-20T14:38:29.861Z,42.10
2022-11-20T14:41:10.499Z,51.00
2022-11-20T14:43:38.759Z,46.55
2022-11-20T14:46:12.165Z,41.75
2022-11-20T14:48:51.201Z,48.00
2022-11-20T14:51:28.303Z,48.72
2022-11-20T14:53:54.978Z,45.85
2022-11-20T14:56:28.082Z,44.95
2022-11-20T14:58:59.567Z,42.40
2022-11-20T15:01:29.122Z,43.40
2022-11-20T15:04:08.976Z,48.08
2022-11-20T15:06:36.230Z,45.83
2022-11-20T15:09:06.507Z,45.55
2022-11-20T15:11:36.873Z,46.53
2022-11-20T15:14:06.960Z,48.50
2022-11-20T15:16:33.820Z,44.33
2022-11-20T15:19:01.406Z,50.22
2022-11-20T15:21:31.194Z,50.95
2022-11-20T15:23:59.433Z,43.88
2022-11-20T15:26:29.405Z,45.60
2022-11-20T15:28:56.146Z,48.78
2022-11-20T15:31:24.777Z,46.58
2022-11-20T15:33:52.068Z,45.45
2022-11-20T15:36:18.698Z,51.42
2022-11-20T15:38:48.097Z,44.50
2022-11-20T15:41:14.654Z,44.65
2022-11-20T15:43:43.983Z,40.97
2022-11-20T15:46:15.038Z,43.60
2022-11-20T15:51:47.831Z,43.83
2022-11-20T15:54:18.809Z,44.45
2022-11-20T15:56:45.309Z,46.60
2022-11-20T15:59:11.878Z,44.65
2022-11-20T16:01:38.845Z,50.42
2022-11-20T16:04:09.867Z,47.85
2022-11-20T16:06:36.349Z,44.03
2022-11-20T16:09:03.150Z,46.38
2022-11-20T16:11:29.645Z,46.92
2022-11-20T16:14:14.982Z,45.83
2022-11-20T16:16:42.791Z,45.17
2022-11-20T16:19:13.660Z,46.05
2022-11-20T16:21:43.590Z,47.25
2022-11-20T16:24:13.809Z,50.20
2022-11-20T16:26:41.140Z,47.65
2022-11-20T16:29:11.238Z,44.60
2022-11-20T16:31:38.071Z,38.60
2022-11-20T16:34:11.850Z,49.67
2022-11-20T16:36:44.612Z,47.58
2022-11-20T16:39:22.078Z,59.88
2022-11-20T16:41:50.132Z,39.38
2022-11-20T16:44:23.976Z,48.58
2022-11-20T16:46:50.681Z,45.97
2022-11-20T16:49:17.378Z,47.55
2022-11-20T16:51:44.410Z,38.25
2022-11-20T16:54:21.096Z,45.53
2022-11-20T16:59:15.319Z,45.60
2022-11-20T17:01:43.196Z,45.17
2022-11-20T17:04:09.829Z,45.92
2022-11-20T17:06:42.103Z,46.65
2022-11-20T17:09:09.862Z,46.47
2022-11-20T17:11:39.652Z,42.70
2022-11-20T17:14:10.144Z,48.10
2022-11-20T17:16:41.791Z,47.17
2022-11-20T17:19:11.592Z,45.15
2022-11-20T17:21:48.774Z,47.53
2022-11-20T17:24:27.809Z,51.80
2022-11-20T17:27:09.873Z,43.75
2022-11-20T17:29:41.765Z,37.97
2022-11-20T17:32:13.016Z,45.40
2022-11-20T17:34:39.746Z,42.30
2022-11-20T17:37:06.804Z,47.53
2022-11-20T17:39:33.290Z,49.08
2022-11-20T17:42:20.135Z,46.03
2022-11-20T17:44:52.211Z,44.00
2022-11-20T17:47:19.736Z,42.58
2022-11-20T17:49:46.264Z,43.92
2022-11-20T17:52:12.786Z,51.05
2022-11-20T17:54:39.384Z,48.13
2022-11-20T17:57:25.249Z,46.03
2022-11-20T17:59:51.877Z,46.50
2022-11-20T18:02:18.342Z,45.15
2022-11-20T18:04:45.066Z,48.90
2022-11-20T18:07:11.698Z,60.95
2022-11-20T18:09:38.220Z,43.28
2022-11-20T18:12:10.448Z,45.05
2022-11-20T18:14:39.834Z,40.17
2022-11-20T18:17:10.855Z,38.45
2022-11-20T18:20:14.141Z,46.85
2022-11-20T18:22:38.247Z,53.78
2022-11-20T18:25:09.385Z,47.88
2022-11-20T18:30:02.655Z,46.85
2022-11-20T18:32:29.178Z,45.28
2022-11-20T18:34:55.684Z,45.72
2022-11-20T18:37:22.469Z,50.15
2022-11-20T18:39:50.698Z,41.47
2022-11-20T18:42:35.950Z,45.85
2022-11-20T18:45:06.339Z,45.05
2022-11-20T18:47:37.466Z,47.15
2022-11-20T18:52:34.228Z,47.78
2022-11-20T18:55:05.773Z,49.17
2022-11-20T18:57:32.789Z,51.03
2022-11-20T19:00:09.346Z,55.10
2022-11-20T19:02:41.461Z,48.53
2022-11-20T19:05:13.552Z,49.25
2022-11-20T19:07:40.381Z,48.88
2022-11-20T19:10:07.563Z,48.47
2022-11-20T19:12:37.018Z,54.10
2022-11-20T19:15:06.842Z,48.33
2022-11-20T19:17:36.451Z,50.20
2022-11-20T19:20:07.083Z,57.13
2022-11-20T19:22:36.508Z,54.20
2022-11-20T19:25:03.131Z,50.53
2022-11-20T19:27:29.708Z,53.67
2022-11-20T19:30:03.106Z,59.58
2022-11-20T19:32:30.029Z,54.83
2022-11-20T19:34:56.666Z,48.55
2022-11-20T19:37:25.259Z,49.65
2022-11-20T19:39:51.777Z,56.00
2022-11-20T19:42:18.647Z,54.35
2022-11-20T19:44:45.123Z,51.05
2022-11-20T19:47:14.503Z,46.33
2022-11-20T19:49:44.977Z,53.95
2022-11-20T19:52:11.506Z,56.97
2022-11-20T19:54:38.078Z,57.17
2022-11-20T19:57:04.932Z,56.47
2022-11-20T19:59:31.461Z,62.88
2022-11-20T20:01:58.416Z,53.78
2022-11-20T20:04:28.017Z,59.75
2022-11-20T20:06:58.211Z,52.75
2022-11-20T20:09:26.956Z,59.65
2022-11-20T20:11:53.730Z,62.10
2022-11-20T20:14:23.187Z,58.78
2022-11-20T20:16:49.728Z,56.75
2022-11-20T20:19:16.624Z,55.97
2022-11-20T20:21:44.097Z,54.80
2022-11-20T20:24:11.965Z,55.75
2022-11-20T20:26:38.704Z,56.90
2022-11-20T20:29:05.232Z,60.53
2022-11-20T20:31:33.680Z,55.75
2022-11-20T20:34:03.982Z,55.95
2022-11-20T20:36:30.658Z,63.38
2022-11-20T20:39:05.130Z,61.90
2022-11-20T20:41:31.852Z,56.35
2022-11-20T20:44:16.905Z,63.88
2022-11-20T20:46:43.908Z,57.30
2022-11-20T20:49:10.502Z,58.75
2022-11-20T20:51:37.343Z,60.75
2022-11-20T20:54:04.583Z,60.25
2022-11-20T20:56:31.218Z,62.53
2022-11-20T20:58:57.974Z,59.10
2022-11-20T21:01:28.728Z,58.72
2022-11-20T21:03:57.378Z,62.65
2022-11-20T21:06:24.625Z,61.33
2022-11-20T21:08:51.124Z,64.00
2022-11-20T21:11:19.228Z,61.70
2022-11-20T21:13:47.111Z,57.97
2022-11-20T21:16:15.915Z,58.35
2022-11-20T21:18:42.508Z,59.75
2022-11-20T21:21:30.869Z,62.17
2022-11-20T21:24:08.009Z,59.97
2022-11-20T21:29:01.095Z,55.72
2022-11-20T21:31:28.596Z,60.15
2022-11-20T21:33:56.816Z,60.85
2022-11-20T21:36:28.837Z,59.40
2022-11-20T21:38:56.550Z,56.97
2022-11-20T21:41:24.969Z,55.63
2022-11-20T21:44:23.655Z,56.47
2022-11-20T21:46:40.768Z,60.17
2022-11-20T21:49:07.805Z,64.78
2022-11-20T21:51:34.405Z,63.38
2022-11-20T21:54:01.397Z,67.00
2022-11-20T21:56:27.979Z,65.20
2022-11-20T21:58:55.244Z,62.38
2022-11-20T22:01:26.023Z,63.03
2022-11-20T22:03:57.249Z,65.10
2022-11-20T22:06:32.446Z,58.67
2022-11-20T22:08:59.274Z,59.83
2022-11-20T22:11:25.923Z,60.92
2022-11-20T22:14:11.319Z,61.78
2022-11-20T22:16:38.358Z,63.60
2022-11-20T22:19:06.200Z,60.72
2022-11-20T22:21:33.038Z,63.35
2022-11-20T22:24:00.133Z,59.95
2022-11-20T22:26:29.457Z,64.15
2022-11-20T22:28:58.382Z,63.47
2022-11-20T22:31:27.310Z,68.88
2022-11-20T22:33:54.131Z,62.85
2022-11-20T22:36:26.431Z,63.35
2022-11-20T22:38:52.900Z,61.83
2022-11-20T22:41:25.199Z,72.55
2022-11-20T22:44:02.006Z,68.70
2022-11-20T22:46:30.703Z,67.93
2022-11-20T22:49:02.899Z,67.60
2022-11-20T22:51:35.198Z,65.90
2022-11-20T22:54:03.679Z,67.50
2022-11-20T22:56:30.411Z,75.85
2022-11-20T22:58:56.987Z,76.03
2022-11-20T23:01:34.348Z,70.80
2022-11-20T23:04:03.412Z,71.38
2022-11-20T23:06:32.130Z,76.63
2022-11-20T23:08:58.683Z,68.88
2022-11-20T23:11:30.071Z,73.15
2022-11-20T23:14:02.902Z,74.72
2022-11-20T23:16:30.454Z,69.47
2022-11-20T23:19:01.722Z,69.13
2022-11-20T23:21:28.754Z,75.07
2022-11-20T23:23:59.794Z,73.28
2022-11-20T23:26:32.336Z,73.85
2022-11-20T23:29:00.933Z,73.22
2022-11-20T23:31:33.003Z,72.97
2022-11-20T23:34:00.342Z,77.78
2022-11-20T23:36:27.219Z,77.38
2022-11-20T23:38:53.829Z,80.00
2022-11-20T23:41:20.466Z,77.20
2022-11-20T23:43:46.931Z,77.05
2022-11-20T23:46:16.527Z,74.43
2022-11-20T23:48:45.068Z,74.70
2022-11-20T23:51:11.934Z,81.00
2022-11-20T23:53:38.531Z,74.03
2022-11-20T23:56:05.540Z,82.55
2022-11-20T23:58:34.321Z,79.70
